createdAt,value
2019-01-12T00:01:18.637Z,5.30
2019-01-12T00:03:49.228Z,6.70
2019-01-12T00:06:19.678Z,5.07
2019-01-12T00:08:50.189Z,6.33
2019-01-12T00:11:20.659Z,5.33
2019-01-12T00:13:51.134Z,6.60
2019-01-12T00:16:21.614Z,5.50
2019-01-12T00:18:52.067Z,6.30
2019-01-12T00:21:22.578Z,5.33
2019-01-12T00:23:54.300Z,4.97
2019-01-12T00:26:25.062Z,5.63
2019-01-12T00:28:55.839Z,6.20
2019-01-12T00:31:26.326Z,5.80
2019-01-12T00:33:57.131Z,6.17
2019-01-12T00:36:27.743Z,5.40
2019-01-12T00:38:58.187Z,5.40
2019-01-12T00:41:28.670Z,6.00
2019-01-12T00:43:59.430Z,4.77
2019-01-12T00:46:29.923Z,5.90
2019-01-12T00:49:00.651Z,5.43
2019-01-12T00:51:31.492Z,5.70
2019-01-12T00:54:01.960Z,4.87
2019-01-12T00:56:32.403Z,5.07
2019-01-12T00:59:02.883Z,5.20
2019-01-12T01:01:33.333Z,5.57
2019-01-12T01:04:04.083Z,5.60
2019-01-12T01:06:34.557Z,6.03
2019-01-12T01:09:08.991Z,5.50
2019-01-12T01:11:39.475Z,5.40
2019-01-12T01:14:09.918Z,5.00
2019-01-12T01:16:40.694Z,5.27
2019-01-12T01:19:11.185Z,4.67
2019-01-12T01:21:41.629Z,5.23
2019-01-12T01:24:12.137Z,5.57
2019-01-12T01:26:42.581Z,4.07
2019-01-12T01:29:13.322Z,4.60
2019-01-12T01:31:44.091Z,4.97
2019-01-12T01:34:14.719Z,4.57
2019-01-12T01:36:45.492Z,5.03
2019-01-12T01:39:15.937Z,4.40
2019-01-12T01:41:46.388Z,3.57
2019-01-12T01:44:16.864Z,4.47
2019-01-12T01:46:47.316Z,4.37
2019-01-12T01:49:18.092Z,4.10
2019-01-12T01:51:48.532Z,4.07
2019-01-12T01:54:18.986Z,4.67
2019-01-12T01:56:49.761Z,5.43
2019-01-12T01:59:20.209Z,4.27
2019-01-12T02:01:50.680Z,4.87
2019-01-12T02:04:21.426Z,4.17
2019-01-12T02:06:52.230Z,4.00
2019-01-12T02:09:22.952Z,3.67
2019-01-12T02:11:53.391Z,4.00
2019-01-12T02:14:24.652Z,4.13
2019-01-12T02:16:55.115Z,4.07
2019-01-12T02:19:25.603Z,3.87
2019-01-12T02:21:56.059Z,3.90
2019-01-12T02:24:26.506Z,4.27
2019-01-12T02:26:56.978Z,3.70
2019-01-12T02:29:27.422Z,4.20
2019-01-12T02:31:57.895Z,3.40
2019-01-12T02:34:28.336Z,3.57
2019-01-12T02:36:59.133Z,3.50
2019-01-12T02:39:30.066Z,3.87
2019-01-12T02:42:00.892Z,3.40
2019-01-12T02:44:31.373Z,3.20
2019-01-12T02:47:01.813Z,3.63
2019-01-12T02:49:32.308Z,3.33
2019-01-12T02:52:03.061Z,3.60
2019-01-12T02:54:33.511Z,3.57
2019-01-12T02:57:03.983Z,3.07
2019-01-12T02:59:34.792Z,3.40
2019-01-12T03:02:05.609Z,2.67
2019-01-12T03:04:36.052Z,3.53
2019-01-12T03:07:06.621Z,2.40
2019-01-12T03:09:37.088Z,2.87
2019-01-12T03:12:08.128Z,2.87
2019-01-12T03:14:38.624Z,2.60
2019-01-12T03:17:09.093Z,2.67
2019-01-12T03:19:39.530Z,2.53
2019-01-12T03:22:10.071Z,2.73
2019-01-12T03:24:40.526Z,2.50
2019-01-12T03:27:11.002Z,2.47
2019-01-12T03:29:42.024Z,1.83
2019-01-12T03:32:12.475Z,2.07
2019-01-12T03:34:42.939Z,2.40
2019-01-12T03:37:13.376Z,1.90
2019-01-12T03:39:43.869Z,1.50
2019-01-12T03:42:14.414Z,1.57
2019-01-12T03:44:44.848Z,1.60
2019-01-12T03:47:15.317Z,1.60
2019-01-12T03:49:45.903Z,1.93
2019-01-12T03:52:16.382Z,1.90
2019-01-12T03:54:47.116Z,1.60
2019-01-12T03:57:17.706Z,1.40
2019-01-12T03:59:48.745Z,1.57
2019-01-12T04:02:19.189Z,2.00
2019-01-12T04:04:49.966Z,1.40
2019-01-12T04:07:20.405Z,1.47
2019-01-12T04:09:50.844Z,1.77
2019-01-12T04:12:21.314Z,1.53
2019-01-12T04:14:52.048Z,1.60
2019-01-12T04:17:22.516Z,1.57
2019-01-12T04:19:53.000Z,1.63
2019-01-12T04:22:23.446Z,1.60
2019-01-12T04:24:53.910Z,1.53
2019-01-12T04:27:24.392Z,1.20
2019-01-12T04:29:54.828Z,1.50
2019-01-12T04:32:25.538Z,1.00
2019-01-12T04:34:56.016Z,1.10
2019-01-12T04:37:26.443Z,1.10
2019-01-12T04:39:56.882Z,1.30
2019-01-12T04:42:27.369Z,1.40
2019-01-12T04:44:57.828Z,1.37
2019-01-12T04:47:28.263Z,1.03
2019-01-12T04:49:58.792Z,1.50
2019-01-12T04:52:29.280Z,1.40
2019-01-12T04:54:59.718Z,1.40
2019-01-12T04:57:30.201Z,1.10
2019-01-12T05:00:00.682Z,0.90
2019-01-12T05:02:31.100Z,1.07
2019-01-12T05:05:01.593Z,1.20
2019-01-12T05:07:32.034Z,1.00
2019-01-12T05:10:02.483Z,1.30
2019-01-12T05:12:33.267Z,1.00
2019-01-12T05:15:04.173Z,1.13
2019-01-12T05:17:34.642Z,1.43
2019-01-12T05:20:07.152Z,1.13
2019-01-12T05:22:37.909Z,1.20
2019-01-12T05:25:08.564Z,1.13
2019-01-12T05:27:39.056Z,1.30
2019-01-12T05:30:12.213Z,1.30
2019-01-12T05:32:42.826Z,1.00
2019-01-12T05:35:13.785Z,1.10
2019-01-12T05:37:44.510Z,1.03
2019-01-12T05:40:15.208Z,0.97
2019-01-12T05:42:45.648Z,0.87
2019-01-12T05:45:16.193Z,0.83
2019-01-12T05:47:46.674Z,0.83
2019-01-12T05:50:17.115Z,0.80
2019-01-12T05:52:47.606Z,0.80
2019-01-12T05:55:18.363Z,0.80
2019-01-12T05:57:48.807Z,0.70
2019-01-12T06:00:21.331Z,0.87
2019-01-12T06:02:52.111Z,1.00
2019-01-12T06:05:22.611Z,0.90
2019-01-12T06:07:53.064Z,0.90
2019-01-12T06:10:23.499Z,0.70
2019-01-12T06:12:53.965Z,0.70
2019-01-12T06:15:24.451Z,0.90
2019-01-12T06:17:55.234Z,0.97
2019-01-12T06:20:25.679Z,0.80
2019-01-12T06:22:56.122Z,1.00
2019-01-12T06:25:26.596Z,0.90
2019-01-12T06:27:57.044Z,0.80
2019-01-12T06:30:28.126Z,0.70
2019-01-12T06:32:58.941Z,1.00
2019-01-12T06:35:29.418Z,1.07
2019-01-12T06:37:59.845Z,0.90
2019-01-12T06:40:30.286Z,1.00
2019-01-12T06:43:00.775Z,1.20
2019-01-12T06:45:31.213Z,1.10
2019-01-12T06:48:01.972Z,1.10
2019-01-12T06:50:32.753Z,1.30
2019-01-12T06:53:03.197Z,1.20
2019-01-12T06:55:33.856Z,1.20
2019-01-12T06:58:04.324Z,1.20
2019-01-12T07:00:35.142Z,1.10
2019-01-12T07:03:06.016Z,1.30
2019-01-12T07:05:36.454Z,1.20
2019-01-12T07:08:06.949Z,1.30
2019-01-12T07:10:37.384Z,1.33
2019-01-12T07:13:07.823Z,1.37
2019-01-12T07:15:39.089Z,1.47
2019-01-12T07:18:09.542Z,1.60
2019-01-12T07:20:40.319Z,1.30
2019-01-12T07:23:10.794Z,1.43
2019-01-12T07:25:41.229Z,1.60
2019-01-12T07:28:11.700Z,1.53
2019-01-12T07:30:42.142Z,1.80
2019-01-12T07:33:12.608Z,1.70
2019-01-12T07:35:43.045Z,2.00
2019-01-12T07:38:13.545Z,1.60
2019-01-12T07:40:43.973Z,1.80
2019-01-12T07:43:14.429Z,1.50
2019-01-12T07:45:45.204Z,1.53
2019-01-12T07:48:15.634Z,1.50
2019-01-12T07:50:46.115Z,1.60
2019-01-12T07:53:16.544Z,1.47
2019-01-12T07:55:46.981Z,1.33
2019-01-12T07:58:17.454Z,1.30
2019-01-12T08:00:47.884Z,1.40
2019-01-12T08:03:18.363Z,1.83
2019-01-12T08:05:48.797Z,1.60
2019-01-12T08:08:19.234Z,1.37
2019-01-12T08:10:49.693Z,1.93
2019-01-12T08:13:20.430Z,1.80
2019-01-12T08:15:50.965Z,1.43
2019-01-12T08:18:21.584Z,1.70
2019-01-12T08:20:52.584Z,2.17
2019-01-12T08:23:23.051Z,1.87
2019-01-12T08:25:53.663Z,2.17
2019-01-12T08:28:24.159Z,1.97
2019-01-12T08:30:54.599Z,2.17
2019-01-12T08:33:25.123Z,1.90
2019-01-12T08:35:55.894Z,1.80
2019-01-12T08:38:26.345Z,2.00
2019-01-12T08:40:56.822Z,2.00
2019-01-12T08:43:27.627Z,2.30
2019-01-12T08:45:58.339Z,2.07
2019-01-12T08:48:28.785Z,2.17
2019-01-12T08:50:59.220Z,2.00
2019-01-12T08:53:29.987Z,2.50
2019-01-12T08:56:00.411Z,2.80
2019-01-12T08:58:30.846Z,2.60
2019-01-12T09:01:01.373Z,3.00
2019-01-12T09:03:31.867Z,2.50
2019-01-12T09:06:02.589Z,2.77
2019-01-12T09:08:33.012Z,2.70
2019-01-12T09:11:03.479Z,3.17
2019-01-12T09:13:33.952Z,2.80
2019-01-12T09:16:04.471Z,2.97
2019-01-12T09:18:35.263Z,3.30
2019-01-12T09:21:05.694Z,3.53
2019-01-12T09:23:36.128Z,3.47
2019-01-12T09:26:06.608Z,3.57
2019-01-12T09:28:37.058Z,3.80
2019-01-12T09:31:07.535Z,3.60
2019-01-12T09:33:37.992Z,4.33
2019-01-12T09:36:08.431Z,4.10
2019-01-12T09:38:39.895Z,4.00
2019-01-12T09:41:10.345Z,5.03
2019-01-12T09:43:41.121Z,5.03
2019-01-12T09:46:11.856Z,4.97
2019-01-12T09:48:42.354Z,4.80
2019-01-12T09:51:13.254Z,5.27
2019-01-12T09:53:43.723Z,4.90
2019-01-12T09:56:14.227Z,5.10
2019-01-12T09:58:44.659Z,5.27
2019-01-12T10:01:15.100Z,5.70
2019-01-12T10:03:45.566Z,6.20
2019-01-12T10:06:16.310Z,6.47
2019-01-12T10:08:46.752Z,6.70
2019-01-12T10:11:17.520Z,6.03
2019-01-12T10:13:48.218Z,6.77
2019-01-12T10:16:18.682Z,6.80
2019-01-12T10:18:49.506Z,6.40
2019-01-12T10:21:20.228Z,6.77
2019-01-12T10:23:50.669Z,7.20
2019-01-12T10:26:21.632Z,7.17
2019-01-12T10:28:52.093Z,7.10
2019-01-12T10:31:22.590Z,6.60
2019-01-12T10:33:53.030Z,7.70
2019-01-12T10:36:23.483Z,6.97
2019-01-12T10:38:53.952Z,7.47
2019-01-12T10:41:24.759Z,6.70
2019-01-12T10:43:55.653Z,7.97
2019-01-12T10:46:26.101Z,6.90
2019-01-12T10:48:56.834Z,7.13
2019-01-12T10:51:27.310Z,7.57
2019-01-12T10:53:57.811Z,7.50
2019-01-12T10:56:28.329Z,7.40
2019-01-12T10:58:58.768Z,7.40
2019-01-12T11:01:29.557Z,6.60
2019-01-12T11:04:00.054Z,6.50
2019-01-12T11:06:30.521Z,7.43
2019-01-12T11:09:01.324Z,7.73
2019-01-12T11:11:32.082Z,8.07
2019-01-12T11:14:02.862Z,7.73
2019-01-12T11:16:33.366Z,7.27
2019-01-12T11:19:03.891Z,7.87
2019-01-12T11:21:34.376Z,8.07
2019-01-12T11:24:05.245Z,8.17
2019-01-12T11:26:35.711Z,8.63
2019-01-12T11:29:06.196Z,8.00
2019-01-12T11:31:36.648Z,8.60
2019-01-12T11:34:07.142Z,8.30
2019-01-12T11:36:37.583Z,8.17
2019-01-12T11:39:08.591Z,8.97
2019-01-12T11:41:39.064Z,8.40
2019-01-12T11:44:09.508Z,8.90
2019-01-12T11:46:40.009Z,9.50
2019-01-12T11:49:10.471Z,10.00
2019-01-12T11:51:40.936Z,10.13
2019-01-12T11:54:11.414Z,10.60
2019-01-12T11:56:42.185Z,11.00
2019-01-12T11:59:12.857Z,10.47
2019-01-12T12:01:43.314Z,11.00
2019-01-12T12:04:13.872Z,10.97
2019-01-12T12:06:44.344Z,11.33
2019-01-12T12:09:14.837Z,11.30
2019-01-12T12:11:45.621Z,12.07
2019-01-12T12:14:16.393Z,12.93
2019-01-12T12:16:46.885Z,10.27
2019-01-12T12:19:17.373Z,11.30
2019-01-12T12:21:48.093Z,10.83
2019-01-12T12:24:18.900Z,11.77
2019-01-12T12:26:49.639Z,10.97
2019-01-12T12:29:20.151Z,11.33
2019-01-12T12:31:50.722Z,10.70
2019-01-12T12:34:21.181Z,10.73
2019-01-12T12:36:52.158Z,10.73
2019-01-12T12:39:22.604Z,9.07
2019-01-12T12:41:53.333Z,10.20
2019-01-12T12:44:24.177Z,9.67
2019-01-12T12:46:54.648Z,9.60
2019-01-12T12:49:25.453Z,9.17
2019-01-12T12:51:55.901Z,10.20
2019-01-12T12:54:26.813Z,9.00
2019-01-12T12:56:57.307Z,9.03
2019-01-12T12:59:27.756Z,9.80
2019-01-12T13:01:58.201Z,8.60
2019-01-12T13:04:28.723Z,8.20
2019-01-12T13:06:59.173Z,8.50
2019-01-12T13:09:29.932Z,8.53
2019-01-12T13:12:00.424Z,7.63
2019-01-12T13:14:30.873Z,7.83
2019-01-12T13:17:01.346Z,8.20
2019-01-12T13:19:32.036Z,8.80
2019-01-12T13:22:04.129Z,8.17
2019-01-12T13:24:34.571Z,8.30
2019-01-12T13:27:05.174Z,9.13
2019-01-12T13:29:35.627Z,7.97
2019-01-12T13:32:06.177Z,8.47
2019-01-12T13:34:36.967Z,9.57
2019-01-12T13:37:07.520Z,9.10
2019-01-12T13:39:37.959Z,9.47
2019-01-12T13:42:08.460Z,9.13
2019-01-12T13:44:38.908Z,9.00
2019-01-12T13:47:09.713Z,8.40
2019-01-12T13:49:40.220Z,8.97
2019-01-12T13:52:10.667Z,9.37
2019-01-12T13:54:41.478Z,9.07
2019-01-12T13:57:13.505Z,8.80
2019-01-12T13:59:44.063Z,8.33
2019-01-12T14:02:14.724Z,8.27
2019-01-12T14:04:45.249Z,8.50
2019-01-12T14:07:15.699Z,7.63
2019-01-12T14:09:46.144Z,7.97
2019-01-12T14:12:16.597Z,6.73
2019-01-12T14:14:47.036Z,6.80
2019-01-12T14:17:17.912Z,6.67
2019-01-12T14:19:48.350Z,6.47
2019-01-12T14:22:19.084Z,6.10
2019-01-12T14:24:49.834Z,5.90
2019-01-12T14:27:20.560Z,5.33
2019-01-12T14:29:51.039Z,5.27
2019-01-12T14:32:21.762Z,6.03
2019-01-12T14:34:52.196Z,5.67
2019-01-12T14:37:23.489Z,5.57
2019-01-12T14:39:54.224Z,5.60
2019-01-12T14:42:24.701Z,5.07
2019-01-12T14:44:55.803Z,4.53
2019-01-12T14:47:26.236Z,4.47
2019-01-12T14:49:56.719Z,4.33
2019-01-12T14:52:27.161Z,4.67
2019-01-12T14:54:57.948Z,4.80
2019-01-12T14:57:28.375Z,4.77
2019-01-12T14:59:58.842Z,4.40
2019-01-12T15:02:29.637Z,4.37
2019-01-12T15:05:00.375Z,4.77
2019-01-12T15:07:30.845Z,4.40
2019-01-12T15:10:01.279Z,4.57
2019-01-12T15:12:31.711Z,4.30
2019-01-12T15:15:02.169Z,4.10
2019-01-12T15:17:32.625Z,4.00
2019-01-12T15:20:03.102Z,4.17
2019-01-12T15:22:33.544Z,4.43
2019-01-12T15:25:04.292Z,4.07
2019-01-12T15:27:34.744Z,4.10
2019-01-12T15:30:06.880Z,4.70
2019-01-12T15:32:37.379Z,4.90
2019-01-12T15:35:08.025Z,5.00
2019-01-12T15:37:38.457Z,5.00
2019-01-12T15:40:10.578Z,4.93
2019-01-12T15:42:41.005Z,5.00
2019-01-12T15:45:14.245Z,4.90
2019-01-12T15:47:44.695Z,4.93
2019-01-12T15:50:17.486Z,5.67
2019-01-12T15:52:48.240Z,5.43
2019-01-12T15:55:18.672Z,5.67
2019-01-12T15:57:49.141Z,5.87
2019-01-12T16:00:21.566Z,6.10
2019-01-12T16:02:52.305Z,6.17
2019-01-12T16:05:23.225Z,6.10
2019-01-12T16:07:53.656Z,6.10
2019-01-12T16:10:24.212Z,5.50
2019-01-12T16:12:54.750Z,5.37
2019-01-12T16:15:27.064Z,5.13
2019-01-12T16:17:58.651Z,5.70
2019-01-12T16:20:32.358Z,5.13
2019-01-12T16:23:03.188Z,4.27
2019-01-12T16:25:33.909Z,5.03
2019-01-12T16:28:04.441Z,4.90
2019-01-12T16:30:34.907Z,5.13
2019-01-12T16:33:05.539Z,4.97
2019-01-12T16:35:36.030Z,6.20
2019-01-12T16:38:06.806Z,5.77
2019-01-12T16:40:37.550Z,5.80
2019-01-12T16:43:08.379Z,5.57
2019-01-12T16:45:39.198Z,6.03
2019-01-12T16:48:09.722Z,5.90
2019-01-12T16:50:40.459Z,5.70
2019-01-12T16:53:10.906Z,5.20
2019-01-12T16:55:41.853Z,5.37
2019-01-12T16:58:12.289Z,4.90
2019-01-12T17:00:42.810Z,5.10
2019-01-12T17:03:13.549Z,4.70
2019-01-12T17:05:43.996Z,4.50
2019-01-12T17:08:14.494Z,3.93
2019-01-12T17:10:46.238Z,3.90
2019-01-12T17:13:16.729Z,3.70
2019-01-12T17:15:47.202Z,4.20
2019-01-12T17:18:17.932Z,4.00
2019-01-12T17:20:48.414Z,3.70
2019-01-12T17:23:19.977Z,3.90
2019-01-12T17:25:50.463Z,3.60
2019-01-12T17:28:21.190Z,3.10
2019-01-12T17:30:51.943Z,3.37
2019-01-12T17:33:22.401Z,3.40
2019-01-12T17:35:52.838Z,3.07
2019-01-12T17:38:23.311Z,2.83
2019-01-12T17:40:53.751Z,2.80
2019-01-12T17:43:24.200Z,2.70
2019-01-12T17:45:54.985Z,2.33
2019-01-12T17:48:25.700Z,2.60
2019-01-12T17:50:56.427Z,2.53
2019-01-12T17:53:27.375Z,2.63
2019-01-12T17:55:58.134Z,2.77
2019-01-12T17:58:28.572Z,2.30
2019-01-12T18:00:59.051Z,2.97
2019-01-12T18:03:29.483Z,2.87
2019-01-12T18:06:00.309Z,2.77
2019-01-12T18:08:31.162Z,2.60
2019-01-12T18:11:04.090Z,3.23
2019-01-12T18:13:34.510Z,3.13
2019-01-12T18:16:05.120Z,3.20
2019-01-12T18:18:35.926Z,3.60
2019-01-12T18:21:06.447Z,3.50
2019-01-12T18:23:38.179Z,3.50
2019-01-12T18:26:08.608Z,3.60
2019-01-12T18:28:39.036Z,3.40
2019-01-12T18:31:09.886Z,3.60
2019-01-12T18:33:40.318Z,3.70
2019-01-12T18:36:10.747Z,3.47
2019-01-12T18:38:41.523Z,3.30
2019-01-12T18:41:12.390Z,2.70
2019-01-12T18:43:42.877Z,4.10
2019-01-12T18:46:13.366Z,2.50
2019-01-12T18:48:43.807Z,3.00
2019-01-12T18:51:14.238Z,2.60
2019-01-12T18:53:44.993Z,2.50
2019-01-12T18:56:15.427Z,2.50
2019-01-12T18:58:45.859Z,2.30
2019-01-12T19:01:16.337Z,2.37
2019-01-12T19:03:47.151Z,2.10
2019-01-12T19:06:17.583Z,2.60
2019-01-12T19:08:48.368Z,2.10
2019-01-12T19:11:20.841Z,2.60
2019-01-12T19:13:51.545Z,2.10
2019-01-12T19:16:22.448Z,2.13
2019-01-12T19:18:52.867Z,2.40
2019-01-12T19:21:23.289Z,2.20
2019-01-12T19:23:54.052Z,1.90
2019-01-12T19:26:24.484Z,2.07
2019-01-12T19:28:54.917Z,2.20
2019-01-12T19:31:25.687Z,1.80
2019-01-12T19:33:56.085Z,2.00
2019-01-12T19:36:26.551Z,1.90
2019-01-12T19:38:56.991Z,2.20
2019-01-12T19:41:27.435Z,2.30
2019-01-12T19:43:58.243Z,2.43
2019-01-12T19:46:28.679Z,2.17
2019-01-12T19:48:59.100Z,2.43
2019-01-12T19:51:29.864Z,2.40
2019-01-12T19:54:00.591Z,2.60
2019-01-12T19:56:31.067Z,2.50
2019-01-12T19:59:01.528Z,2.67
2019-01-12T20:01:31.983Z,2.73
2019-01-12T20:04:02.776Z,2.87
2019-01-12T20:06:33.212Z,2.70
2019-01-12T20:09:06.796Z,2.13
2019-01-12T20:11:37.231Z,2.40
2019-01-12T20:14:08.541Z,3.00
2019-01-12T20:16:39.331Z,2.50
2019-01-12T20:19:10.323Z,2.10
2019-01-12T20:21:40.799Z,2.27
2019-01-12T20:24:11.519Z,2.43
2019-01-12T20:26:42.012Z,2.37
2019-01-12T20:29:12.553Z,2.60
2019-01-12T20:32:22.708Z,2.57
2019-01-12T20:35:20.759Z,2.50
2019-01-12T20:38:27.479Z,2.33
2019-01-12T20:41:36.213Z,2.20
2019-01-12T20:44:26.721Z,2.83
2019-01-12T20:47:34.628Z,3.00
2019-01-12T20:50:36.282Z,2.87
2019-01-12T20:53:39.381Z,2.37
2019-01-12T20:56:47.780Z,2.33
2019-01-12T20:59:38.041Z,2.37
2019-01-12T21:02:54.574Z,2.60
2019-01-12T21:05:58.792Z,2.63
2019-01-12T21:08:46.549Z,2.40
2019-01-12T21:12:00.692Z,3.00
2019-01-12T21:14:41.887Z,3.00
2019-01-12T21:17:14.707Z,2.67
2019-01-12T21:19:48.289Z,1.97
2019-01-12T21:22:23.151Z,1.60
2019-01-12T21:24:54.511Z,1.50
2019-01-12T21:27:27.454Z,1.60
2019-01-12T21:29:58.281Z,1.53
2019-01-12T21:32:28.875Z,1.20
2019-01-12T21:34:59.300Z,1.20
2019-01-12T21:37:30.063Z,1.10
2019-01-12T21:40:01.243Z,1.40
2019-01-12T21:42:31.669Z,1.40
2019-01-12T21:45:02.708Z,1.40
2019-01-12T21:47:33.153Z,1.23
2019-01-12T21:50:03.739Z,1.30
2019-01-12T21:52:34.156Z,1.27
2019-01-12T21:55:06.573Z,1.53
2019-01-12T21:57:37.852Z,1.50
2019-01-12T22:00:13.878Z,1.60
2019-01-12T22:02:44.432Z,1.47
2019-01-12T22:05:15.212Z,1.50
2019-01-12T22:07:46.285Z,1.40
2019-01-12T22:10:19.268Z,1.77
2019-01-12T22:12:49.446Z,1.70
2019-01-12T22:15:19.940Z,1.90
2019-01-12T22:17:51.172Z,1.73
2019-01-12T22:20:21.962Z,2.00
2019-01-12T22:22:52.878Z,1.50
2019-01-12T22:25:23.325Z,2.20
2019-01-12T22:27:56.303Z,2.00
2019-01-12T22:30:27.156Z,2.20
2019-01-12T22:32:57.599Z,2.00
2019-01-12T22:35:28.075Z,2.80
2019-01-12T22:37:58.540Z,2.87
2019-01-12T22:40:28.970Z,2.23
2019-01-12T22:42:59.848Z,2.03
2019-01-12T22:45:30.619Z,2.60
2019-01-12T22:48:01.047Z,2.50
2019-01-12T22:50:31.777Z,2.47
2019-01-12T22:53:02.336Z,2.87
2019-01-12T22:55:35.415Z,2.63
2019-01-12T22:58:05.858Z,2.40
2019-01-12T23:00:55.526Z,2.33
2019-01-12T23:03:26.334Z,2.73
2019-01-12T23:05:56.759Z,2.13
2019-01-12T23:08:27.224Z,1.97
2019-01-12T23:10:57.955Z,1.93
2019-01-12T23:13:28.451Z,2.20
2019-01-12T23:15:59.183Z,2.40
2019-01-12T23:18:29.607Z,2.53
2019-01-12T23:21:00.173Z,2.30
2019-01-12T23:23:30.593Z,2.27
2019-01-12T23:26:01.353Z,2.10
2019-01-12T23:28:31.809Z,2.47
2019-01-12T23:31:02.335Z,1.83
2019-01-12T23:33:32.791Z,1.70
2019-01-12T23:36:03.212Z,2.00
2019-01-12T23:38:33.856Z,2.60
2019-01-12T23:41:04.493Z,2.50
2019-01-12T23:43:34.942Z,2.20
2019-01-12T23:46:06.119Z,2.17
2019-01-12T23:48:36.541Z,1.97
2019-01-12T23:51:06.964Z,2.37
2019-01-12T23:53:37.731Z,1.83
2019-01-12T23:56:08.160Z,2.07
2019-01-12T23:58:38.584Z,2.17
